createdAt,value
2018-09-28T00:00:15.854Z,11.90
2018-09-28T00:02:44.542Z,11.90
2018-09-28T00:05:12.266Z,12.00
2018-09-28T00:07:40.189Z,11.90
2018-09-28T00:10:07.933Z,11.80
2018-09-28T00:12:35.746Z,11.80
2018-09-28T00:15:03.482Z,11.90
2018-09-28T00:17:31.240Z,11.80
2018-09-28T00:19:58.966Z,11.70
2018-09-28T00:22:26.717Z,11.70
2018-09-28T00:24:54.453Z,11.70
2018-09-28T00:27:22.223Z,11.70
2018-09-28T00:29:49.993Z,11.70
2018-09-28T00:32:18.282Z,11.60
2018-09-28T00:34:46.046Z,11.50
2018-09-28T00:37:13.766Z,11.50
2018-09-28T00:39:41.553Z,11.40
2018-09-28T00:42:09.281Z,11.40
2018-09-28T00:44:37.145Z,11.40
2018-09-28T00:47:04.947Z,11.30
2018-09-28T00:49:32.738Z,11.20
2018-09-28T00:52:00.477Z,11.20
2018-09-28T00:54:28.238Z,11.20
2018-09-28T00:56:55.957Z,11.10
2018-09-28T00:59:23.715Z,11.10
2018-09-28T01:01:51.433Z,11.10
2018-09-28T01:04:19.208Z,11.00
2018-09-28T01:06:46.942Z,11.00
2018-09-28T01:09:15.713Z,11.00
2018-09-28T01:11:43.734Z,10.90
2018-09-28T01:14:11.533Z,10.90
2018-09-28T01:16:39.278Z,10.90
2018-09-28T01:19:07.038Z,10.90
2018-09-28T01:21:34.813Z,10.80
2018-09-28T01:24:02.569Z,10.80
2018-09-28T01:26:30.313Z,10.80
2018-09-28T01:28:58.074Z,10.70
2018-09-28T01:31:25.826Z,10.70
2018-09-28T01:33:53.585Z,10.70
2018-09-28T01:36:21.326Z,10.70
2018-09-28T01:38:49.149Z,10.70
2018-09-28T01:41:16.890Z,10.60
2018-09-28T01:43:44.620Z,10.60
2018-09-28T01:46:12.453Z,10.60
2018-09-28T01:48:40.172Z,10.50
2018-09-28T01:51:07.942Z,10.50
2018-09-28T01:53:35.665Z,10.50
2018-09-28T01:56:03.433Z,10.50
2018-09-28T01:58:31.205Z,10.50
2018-09-28T02:00:58.973Z,10.50
2018-09-28T02:03:27.049Z,10.50
2018-09-28T02:05:54.814Z,10.50
2018-09-28T02:08:22.528Z,10.40
2018-09-28T02:10:50.269Z,10.40
2018-09-28T02:13:18.022Z,10.40
2018-09-28T02:15:45.825Z,10.30
2018-09-28T02:18:13.514Z,10.30
2018-09-28T02:20:41.267Z,10.30
2018-09-28T02:23:09.041Z,10.30
2018-09-28T02:25:36.782Z,10.30
2018-09-28T02:28:04.587Z,10.30
2018-09-28T02:30:32.302Z,10.20
2018-09-28T02:33:00.054Z,10.20
2018-09-28T02:35:27.788Z,10.20
2018-09-28T02:37:55.529Z,10.20
2018-09-28T02:40:23.269Z,10.20
2018-09-28T02:42:51.761Z,10.20
2018-09-28T02:45:19.513Z,10.20
2018-09-28T02:47:47.334Z,10.20
2018-09-28T02:50:15.074Z,10.20
2018-09-28T02:52:42.871Z,10.20
2018-09-28T02:55:10.609Z,10.20
2018-09-28T02:57:38.382Z,10.20
2018-09-28T03:00:06.210Z,10.20
2018-09-28T03:02:34.166Z,10.20
2018-09-28T03:05:02.049Z,10.20
2018-09-28T03:07:29.816Z,10.20
2018-09-28T03:09:57.770Z,10.20
2018-09-28T03:12:25.484Z,10.20
2018-09-28T03:14:53.479Z,10.10
2018-09-28T03:17:21.229Z,10.20
2018-09-28T03:19:49.025Z,10.10
2018-09-28T03:22:16.762Z,10.10
2018-09-28T03:24:44.529Z,10.10
2018-09-28T03:27:12.299Z,10.10
2018-09-28T03:29:40.093Z,10.10
2018-09-28T03:32:08.426Z,10.00
2018-09-28T03:34:36.214Z,10.10
2018-09-28T03:37:05.066Z,10.10
2018-09-28T03:39:33.201Z,10.20
2018-09-28T03:42:00.934Z,10.20
2018-09-28T03:44:28.725Z,10.20
2018-09-28T03:46:56.449Z,10.20
2018-09-28T03:49:24.409Z,10.20
2018-09-28T03:51:52.521Z,10.20
2018-09-28T03:54:20.966Z,10.20
2018-09-28T03:56:48.692Z,10.20
2018-09-28T03:59:16.482Z,10.10
2018-09-28T04:01:44.198Z,10.10
2018-09-28T04:04:12.014Z,10.10
2018-09-28T04:06:39.762Z,10.10
2018-09-28T04:09:08.894Z,10.10
2018-09-28T04:11:36.797Z,10.10
2018-09-28T04:14:04.597Z,10.10
2018-09-28T04:16:32.397Z,10.10
2018-09-28T04:19:00.193Z,10.10
2018-09-28T04:21:27.930Z,10.10
2018-09-28T04:23:55.690Z,10.10
2018-09-28T04:26:23.493Z,10.10
2018-09-28T04:28:51.330Z,10.10
2018-09-28T04:31:19.066Z,10.10
2018-09-28T04:33:46.826Z,10.10
2018-09-28T04:36:14.546Z,10.10
2018-09-28T04:38:42.297Z,10.20
2018-09-28T04:41:10.074Z,10.10
2018-09-28T04:43:37.878Z,10.10
2018-09-28T04:46:05.641Z,10.10
2018-09-28T04:48:33.385Z,10.10
2018-09-28T04:51:01.117Z,10.10
2018-09-28T04:53:28.865Z,10.10
2018-09-28T04:55:56.649Z,10.10
2018-09-28T04:58:24.407Z,10.10
2018-09-28T05:00:52.250Z,10.10
2018-09-28T05:03:20.038Z,10.10
2018-09-28T05:05:47.759Z,10.20
2018-09-28T05:08:15.573Z,10.20
2018-09-28T05:10:43.316Z,10.10
2018-09-28T05:13:11.203Z,10.10
2018-09-28T05:15:39.021Z,10.10
2018-09-28T05:18:06.786Z,10.10
2018-09-28T05:20:34.869Z,10.10
2018-09-28T05:23:02.690Z,10.20
2018-09-28T05:25:30.415Z,10.10
2018-09-28T05:27:58.174Z,10.10
2018-09-28T05:30:25.902Z,10.10
2018-09-28T05:32:53.810Z,10.10
2018-09-28T05:35:21.441Z,10.20
2018-09-28T05:37:49.554Z,10.20
2018-09-28T05:40:17.355Z,10.20
2018-09-28T05:42:45.078Z,10.30
2018-09-28T05:45:12.837Z,10.40
2018-09-28T05:47:40.633Z,10.40
2018-09-28T05:50:08.394Z,10.40
2018-09-28T05:52:36.598Z,10.40
2018-09-28T05:55:04.369Z,10.50
2018-09-28T05:57:32.082Z,10.60
2018-09-28T06:00:05.321Z,10.60
2018-09-28T06:02:38.457Z,10.70
2018-09-28T06:05:11.611Z,10.70
2018-09-28T06:07:39.334Z,10.70
2018-09-28T06:10:07.054Z,10.80
2018-09-28T06:12:34.854Z,10.80
2018-09-28T06:15:02.614Z,10.90
2018-09-28T06:17:30.393Z,11.00
2018-09-28T06:19:58.152Z,11.00
2018-09-28T06:22:25.930Z,11.10
2018-09-28T06:24:53.645Z,11.20
2018-09-28T06:27:21.439Z,11.40
2018-09-28T06:29:49.212Z,13.60
2018-09-28T06:32:17.102Z,16.20
2018-09-28T06:34:44.826Z,17.60
2018-09-28T06:37:12.601Z,18.70
2018-09-28T06:39:40.383Z,19.50
2018-09-28T06:42:08.200Z,20.10
2018-09-28T06:44:35.918Z,20.40
2018-09-28T06:47:03.721Z,20.70
2018-09-28T06:49:31.443Z,21.40
2018-09-28T06:51:59.233Z,21.30
2018-09-28T06:54:26.978Z,22.20
2018-09-28T06:56:55.097Z,22.90
2018-09-28T06:59:22.845Z,23.40
2018-09-28T07:01:50.590Z,23.30
2018-09-28T07:04:18.339Z,23.30
2018-09-28T07:06:46.102Z,23.80
2018-09-28T07:09:14.158Z,24.60
2018-09-28T07:11:42.139Z,25.70
2018-09-28T07:14:10.741Z,25.50
2018-09-28T07:16:38.778Z,26.00
2018-09-28T07:19:06.682Z,25.80
2018-09-28T07:21:34.508Z,26.20
2018-09-28T07:24:02.305Z,27.10
2018-09-28T07:26:30.078Z,27.00
2018-09-28T07:28:57.806Z,25.90
2018-09-28T07:31:25.558Z,25.80
2018-09-28T07:33:53.462Z,25.70
2018-09-28T07:36:21.356Z,26.20
2018-09-28T07:38:49.025Z,26.10
2018-09-28T07:41:16.741Z,27.60
2018-09-28T07:43:44.561Z,27.20
2018-09-28T07:46:12.369Z,27.30
2018-09-28T07:48:40.289Z,27.40
2018-09-28T07:51:08.028Z,26.80
2018-09-28T07:53:35.794Z,26.50
2018-09-28T07:56:03.564Z,25.70
2018-09-28T07:58:32.071Z,24.10
2018-09-28T08:00:59.821Z,25.50
2018-09-28T08:03:28.817Z,26.40
2018-09-28T08:05:57.769Z,27.10
2018-09-28T08:08:25.537Z,26.90
2018-09-28T08:10:53.310Z,27.60
2018-09-28T08:13:21.385Z,29.00
2018-09-28T08:15:49.171Z,28.70
2018-09-28T08:18:17.842Z,28.80
2018-09-28T08:20:45.779Z,28.90
2018-09-28T08:23:13.568Z,29.60
2018-09-28T08:25:41.326Z,29.00
2018-09-28T08:28:09.113Z,30.00
2018-09-28T08:30:36.952Z,30.60
2018-09-28T08:33:04.687Z,30.20
2018-09-28T08:35:32.436Z,29.80
2018-09-28T08:38:00.217Z,32.10
2018-09-28T08:40:27.929Z,31.30
2018-09-28T08:42:55.686Z,31.70
2018-09-28T08:45:23.429Z,29.40
2018-09-28T08:47:51.186Z,29.20
2018-09-28T08:50:18.994Z,29.60
2018-09-28T08:52:46.757Z,30.90
2018-09-28T08:55:14.646Z,29.90
2018-09-28T08:57:42.397Z,29.80
2018-09-28T09:00:10.167Z,29.60
2018-09-28T09:02:37.917Z,31.20
2018-09-28T09:05:05.697Z,32.10
2018-09-28T09:07:33.445Z,30.80
2018-09-28T09:10:01.226Z,33.00
2018-09-28T09:12:28.970Z,32.60
2018-09-28T09:14:56.742Z,31.20
2018-09-28T09:17:24.514Z,31.10
2018-09-28T09:19:52.273Z,31.70
2018-09-28T09:22:20.041Z,30.20
2018-09-28T09:24:47.813Z,29.80
2018-09-28T09:27:15.613Z,30.60
2018-09-28T09:29:43.865Z,30.70
2018-09-28T09:32:11.584Z,31.10
2018-09-28T09:34:39.349Z,31.40
2018-09-28T09:37:07.087Z,31.80
2018-09-28T09:39:34.889Z,33.20
2018-09-28T09:42:02.641Z,31.80
2018-09-28T09:44:30.425Z,33.60
2018-09-28T09:46:58.153Z,35.50
2018-09-28T09:49:25.901Z,33.20
2018-09-28T09:51:53.637Z,31.90
2018-09-28T09:54:21.386Z,31.60
2018-09-28T09:56:49.116Z,30.90
2018-09-28T09:59:16.946Z,29.90
2018-09-28T10:01:50.195Z,32.30
2018-09-28T10:04:17.954Z,32.80
2018-09-28T10:06:46.126Z,33.00
2018-09-28T10:09:14.717Z,34.00
2018-09-28T10:11:42.634Z,34.00
2018-09-28T10:14:10.627Z,35.30
2018-09-28T10:16:38.373Z,34.60
2018-09-28T10:19:06.512Z,35.30
2018-09-28T10:21:34.238Z,34.80
2018-09-28T10:24:02.033Z,34.60
2018-09-28T10:26:29.778Z,33.70
2018-09-28T10:28:57.617Z,33.00
2018-09-28T10:31:25.361Z,33.40
2018-09-28T10:33:53.124Z,33.70
2018-09-28T10:36:21.482Z,33.70
2018-09-28T10:38:49.206Z,34.30
2018-09-28T10:41:17.070Z,35.20
2018-09-28T10:43:44.953Z,34.00
2018-09-28T10:46:12.772Z,34.60
2018-09-28T10:48:40.506Z,33.40
2018-09-28T10:51:08.327Z,32.10
2018-09-28T10:53:36.091Z,32.20
2018-09-28T10:56:03.857Z,31.70
2018-09-28T10:58:31.634Z,31.60
2018-09-28T11:00:59.402Z,31.00
2018-09-28T11:03:27.221Z,30.80
2018-09-28T11:05:54.945Z,30.10
2018-09-28T11:08:22.723Z,29.30
2018-09-28T11:10:50.506Z,29.60
2018-09-28T11:13:18.253Z,29.00
2018-09-28T11:15:46.782Z,28.60
2018-09-28T11:18:14.486Z,28.00
2018-09-28T11:20:42.930Z,27.90
2018-09-28T11:23:10.655Z,28.50
2018-09-28T11:25:38.418Z,28.20
2018-09-28T11:28:06.142Z,28.40
2018-09-28T11:30:34.293Z,28.70
2018-09-28T11:33:02.013Z,28.50
2018-09-28T11:35:29.785Z,28.00
2018-09-28T11:37:57.557Z,28.10
2018-09-28T11:40:25.961Z,29.40
2018-09-28T11:42:54.282Z,28.90
2018-09-28T11:45:22.113Z,28.50
2018-09-28T11:47:49.818Z,28.50
2018-09-28T11:50:17.570Z,28.50
2018-09-28T11:52:45.317Z,28.30
2018-09-28T11:55:13.077Z,28.30
2018-09-28T11:57:41.294Z,28.20
2018-09-28T12:00:09.743Z,28.50
2018-09-28T12:02:37.461Z,28.00
2018-09-28T12:05:05.243Z,27.80
2018-09-28T12:07:32.971Z,28.00
2018-09-28T12:10:00.694Z,27.80
2018-09-28T12:12:28.467Z,27.70
2018-09-28T12:14:56.225Z,27.50
2018-09-28T12:17:24.257Z,27.30
2018-09-28T12:19:51.997Z,26.70
2018-09-28T12:22:19.798Z,26.80
2018-09-28T12:24:47.617Z,26.70
2018-09-28T12:27:15.345Z,26.70
2018-09-28T12:29:43.102Z,27.10
2018-09-28T12:32:10.897Z,26.90
2018-09-28T12:34:39.133Z,26.20
2018-09-28T12:37:06.885Z,26.10
2018-09-28T12:39:34.632Z,26.60
2018-09-28T12:42:02.367Z,26.20
2018-09-28T12:44:30.194Z,26.30
2018-09-28T12:46:57.902Z,26.00
2018-09-28T12:49:25.653Z,26.00
2018-09-28T12:51:53.537Z,25.70
2018-09-28T12:54:21.296Z,25.90
2018-09-28T12:56:49.156Z,25.90
2018-09-28T12:59:16.845Z,25.60
2018-09-28T13:01:44.653Z,25.70
2018-09-28T13:04:18.361Z,25.80
2018-09-28T13:06:47.345Z,25.40
2018-09-28T13:09:15.070Z,25.20
2018-09-28T13:11:42.813Z,25.40
2018-09-28T13:14:11.496Z,25.30
2018-09-28T13:16:39.542Z,25.40
2018-09-28T13:19:07.417Z,25.20
2018-09-28T13:21:35.232Z,25.20
2018-09-28T13:24:02.983Z,25.10
2018-09-28T13:26:30.847Z,25.20
2018-09-28T13:28:58.632Z,25.20
2018-09-28T13:31:26.657Z,25.10
2018-09-28T13:33:54.483Z,25.20
2018-09-28T13:36:23.301Z,25.00
2018-09-28T13:38:51.102Z,24.90
2018-09-28T13:41:18.785Z,25.10
2018-09-28T13:43:47.090Z,25.30
2018-09-28T13:46:14.900Z,25.20
2018-09-28T13:48:44.010Z,25.20
2018-09-28T13:51:11.725Z,24.80
2018-09-28T13:53:41.083Z,25.60
2018-09-28T13:56:08.838Z,25.40
2018-09-28T13:58:36.587Z,25.00
2018-09-28T14:01:04.349Z,24.90
2018-09-28T14:03:32.151Z,25.00
2018-09-28T14:05:59.890Z,25.00
2018-09-28T14:08:27.681Z,24.70
2018-09-28T14:10:55.402Z,24.50
2018-09-28T14:13:23.190Z,24.70
2018-09-28T14:15:51.521Z,24.40
2018-09-28T14:18:19.374Z,24.30
2018-09-28T14:20:47.132Z,24.20
2018-09-28T14:23:14.821Z,24.10
2018-09-28T14:25:42.556Z,24.00
2018-09-28T14:28:10.334Z,23.80
2018-09-28T14:30:38.091Z,23.80
2018-09-28T14:33:05.833Z,23.70
2018-09-28T14:35:33.554Z,23.70
2018-09-28T14:38:01.306Z,23.60
2018-09-28T14:40:29.110Z,23.30
2018-09-28T14:42:56.860Z,23.40
2018-09-28T14:45:24.590Z,23.40
2018-09-28T14:47:52.354Z,23.10
2018-09-28T14:50:20.152Z,23.00
2018-09-28T14:52:47.933Z,22.80
2018-09-28T14:55:15.654Z,22.80
2018-09-28T14:57:43.406Z,22.60
2018-09-28T15:00:11.238Z,22.50
2018-09-28T15:02:39.048Z,22.40
2018-09-28T15:05:07.154Z,22.30
2018-09-28T15:07:35.051Z,22.20
2018-09-28T15:10:02.778Z,22.20
2018-09-28T15:12:30.577Z,22.20
2018-09-28T15:14:59.414Z,22.20
2018-09-28T15:17:27.318Z,22.20
2018-09-28T15:19:55.073Z,22.20
2018-09-28T15:22:22.821Z,22.10
2018-09-28T15:24:51.491Z,22.00
2018-09-28T15:27:25.028Z,22.00
2018-09-28T15:29:53.205Z,21.80
2018-09-28T15:32:23.157Z,21.70
2018-09-28T15:34:50.935Z,21.70
2018-09-28T15:37:18.709Z,21.60
2018-09-28T15:39:46.462Z,21.50
2018-09-28T15:42:14.247Z,21.60
2018-09-28T15:44:41.965Z,21.40
2018-09-28T15:47:09.717Z,21.30
2018-09-28T15:49:37.523Z,21.40
2018-09-28T15:52:05.315Z,21.40
2018-09-28T15:54:33.575Z,21.40
2018-09-28T15:57:01.427Z,21.40
2018-09-28T15:59:29.236Z,21.40
2018-09-28T16:01:59.618Z,21.30
2018-09-28T16:04:27.594Z,21.10
2018-09-28T16:06:55.338Z,21.10
2018-09-28T16:09:23.116Z,20.90
2018-09-28T16:11:50.867Z,20.80
2018-09-28T16:14:18.855Z,20.70
2018-09-28T16:16:48.437Z,20.60
2018-09-28T16:19:16.281Z,20.50
2018-09-28T16:21:46.333Z,20.30
2018-09-28T16:24:14.102Z,20.20
2018-09-28T16:26:41.969Z,20.10
2018-09-28T16:29:09.762Z,19.90
2018-09-28T16:31:38.126Z,20.00
2018-09-28T16:34:05.909Z,19.90
2018-09-28T16:36:34.346Z,19.80
2018-09-28T16:39:02.142Z,19.80
2018-09-28T16:41:29.882Z,19.70
2018-09-28T16:43:59.701Z,19.50
2018-09-28T16:46:27.733Z,19.60
2018-09-28T16:48:55.645Z,19.40
2018-09-28T16:51:24.607Z,19.30
2018-09-28T16:53:52.381Z,19.30
2018-09-28T16:56:20.152Z,19.20
2018-09-28T16:58:48.513Z,19.20
2018-09-28T17:01:16.317Z,19.10
2018-09-28T17:03:44.222Z,19.00
2018-09-28T17:06:12.086Z,18.90
2018-09-28T17:08:40.705Z,18.80
2018-09-28T17:11:09.729Z,18.80
2018-09-28T17:13:37.904Z,18.70
2018-09-28T17:16:06.216Z,18.70
2018-09-28T17:18:35.842Z,18.60
2018-09-28T17:21:03.945Z,18.50
2018-09-28T17:23:32.882Z,18.40
2018-09-28T17:26:02.100Z,18.40
2018-09-28T17:28:31.130Z,18.40
2018-09-28T17:30:59.957Z,18.40
2018-09-28T17:33:29.596Z,18.30
2018-09-28T17:35:58.307Z,18.20
2018-09-28T17:38:26.769Z,18.20
2018-09-28T17:40:56.025Z,18.20
2018-09-28T17:43:24.345Z,18.10
2018-09-28T17:45:53.990Z,17.90
2018-09-28T17:48:23.350Z,17.80
2018-09-28T17:50:51.914Z,17.90
2018-09-28T17:53:22.033Z,17.80
2018-09-28T17:55:50.674Z,17.80
2018-09-28T17:58:19.319Z,17.70
2018-09-28T18:00:48.478Z,17.70
2018-09-28T18:03:16.516Z,17.70
2018-09-28T18:05:44.625Z,17.70
2018-09-28T18:08:13.714Z,17.70
2018-09-28T18:10:42.498Z,17.70
2018-09-28T18:13:10.952Z,17.60
2018-09-28T18:15:38.766Z,17.60
2018-09-28T18:18:07.896Z,17.60
2018-09-28T18:20:36.233Z,17.50
2018-09-28T18:23:04.637Z,17.50
2018-09-28T18:25:33.942Z,17.60
2018-09-28T18:28:03.950Z,17.40
2018-09-28T18:30:33.197Z,17.40
2018-09-28T18:33:03.343Z,17.30
2018-09-28T18:35:31.818Z,17.20
2018-09-28T18:38:01.224Z,17.20
2018-09-28T18:40:29.936Z,17.20
2018-09-28T18:42:57.668Z,17.20
2018-09-28T18:45:25.451Z,17.10
2018-09-28T18:47:54.221Z,17.10
2018-09-28T18:50:21.973Z,17.10
2018-09-28T18:52:49.713Z,17.00
2018-09-28T18:55:17.782Z,17.00
2018-09-28T18:57:45.521Z,16.90
2018-09-28T19:00:13.362Z,16.80
2018-09-28T19:02:41.125Z,16.80
2018-09-28T19:05:09.033Z,16.70
2018-09-28T19:07:36.750Z,16.70
2018-09-28T19:10:04.547Z,16.60
2018-09-28T19:12:32.364Z,16.50
2018-09-28T19:15:00.687Z,16.50
2018-09-28T19:17:28.958Z,16.40
2018-09-28T19:19:56.706Z,16.30
2018-09-28T19:22:24.493Z,16.20
2018-09-28T19:24:52.247Z,16.20
2018-09-28T19:27:21.529Z,16.00
2018-09-28T19:29:50.208Z,15.90
2018-09-28T19:32:18.672Z,15.80
2018-09-28T19:34:47.664Z,15.50
2018-09-28T19:37:16.990Z,15.40
2018-09-28T19:39:46.991Z,15.20
2018-09-28T19:42:16.030Z,15.00
2018-09-28T19:44:44.531Z,15.00
2018-09-28T19:47:13.821Z,14.90
2018-09-28T19:49:43.009Z,14.80
2018-09-28T19:52:10.769Z,14.70
2018-09-28T19:54:39.554Z,14.60
2018-09-28T19:57:08.485Z,14.50
2018-09-28T19:59:37.572Z,14.40
2018-09-28T20:02:06.824Z,14.30
2018-09-28T20:04:36.319Z,14.20
2018-09-28T20:07:05.435Z,14.10
2018-09-28T20:09:34.596Z,14.00
2018-09-28T20:12:04.693Z,14.00
2018-09-28T20:14:34.296Z,13.90
2018-09-28T20:17:02.161Z,13.80
2018-09-28T20:19:31.358Z,13.80
2018-09-28T20:22:00.649Z,13.70
2018-09-28T20:24:29.408Z,13.70
2018-09-28T20:26:57.189Z,13.70
2018-09-28T20:29:26.287Z,13.50
2018-09-28T20:31:54.109Z,13.50
2018-09-28T20:34:23.463Z,13.40
2018-09-28T20:36:52.484Z,13.50
2018-09-28T20:39:22.999Z,13.40
2018-09-28T20:41:52.337Z,13.40
2018-09-28T20:44:21.689Z,13.40
2018-09-28T20:46:49.418Z,13.30
2018-09-28T20:49:17.434Z,13.20
2018-09-28T20:51:45.205Z,13.20
2018-09-28T20:54:13.048Z,13.20
2018-09-28T20:56:40.814Z,13.10
2018-09-28T20:59:08.577Z,13.00
2018-09-28T21:01:37.821Z,13.00
2018-09-28T21:04:05.540Z,13.00
2018-09-28T21:06:33.262Z,12.90
2018-09-28T21:09:01.025Z,13.00
2018-09-28T21:11:28.791Z,12.90
2018-09-28T21:13:56.597Z,12.80
2018-09-28T21:16:24.349Z,12.70
2018-09-28T21:18:52.097Z,12.80
2018-09-28T21:21:19.899Z,12.70
2018-09-28T21:23:47.662Z,12.70
2018-09-28T21:26:15.416Z,12.60
2018-09-28T21:28:43.192Z,12.60
2018-09-28T21:31:11.126Z,12.60
2018-09-28T21:33:38.861Z,12.60
2018-09-28T21:36:06.674Z,12.60
2018-09-28T21:38:34.433Z,12.60
2018-09-28T21:41:02.173Z,12.60
2018-09-28T21:43:30.002Z,12.60
2018-09-28T21:45:57.772Z,12.50
2018-09-28T21:48:25.549Z,12.50
2018-09-28T21:50:53.372Z,12.50
2018-09-28T21:53:21.102Z,12.50
2018-09-28T21:55:48.869Z,12.40
2018-09-28T21:58:16.622Z,12.40
2018-09-28T22:00:44.437Z,12.40
2018-09-28T22:03:12.197Z,12.40
2018-09-28T22:05:39.926Z,12.40
2018-09-28T22:08:07.678Z,12.40
2018-09-28T22:10:35.393Z,12.40
2018-09-28T22:13:03.214Z,12.30
2018-09-28T22:15:30.977Z,12.30
2018-09-28T22:17:58.909Z,12.30
2018-09-28T22:20:26.648Z,12.30
2018-09-28T22:22:54.487Z,12.40
2018-09-28T22:25:22.221Z,12.40
2018-09-28T22:27:50.017Z,12.40
2018-09-28T22:30:17.969Z,12.50
2018-09-28T22:32:46.314Z,12.50
2018-09-28T22:35:14.085Z,12.60
2018-09-28T22:37:42.438Z,12.60
2018-09-28T22:40:10.202Z,12.60
2018-09-28T22:42:38.609Z,12.60
2018-09-28T22:45:06.402Z,12.60
2018-09-28T22:47:34.185Z,12.60
2018-09-28T22:50:01.919Z,12.70
2018-09-28T22:52:29.802Z,12.70
2018-09-28T22:54:57.572Z,12.70
2018-09-28T22:57:25.321Z,12.70
2018-09-28T22:59:53.093Z,12.70
2018-09-28T23:02:20.888Z,12.70
2018-09-28T23:04:48.722Z,12.70
2018-09-28T23:07:16.589Z,12.70
2018-09-28T23:09:44.350Z,12.70
2018-09-28T23:12:12.078Z,12.70
2018-09-28T23:14:39.894Z,12.70
2018-09-28T23:17:07.764Z,12.70
2018-09-28T23:19:35.661Z,12.70
2018-09-28T23:22:03.456Z,12.70
2018-09-28T23:24:31.209Z,12.60
2018-09-28T23:26:58.928Z,12.60
2018-09-28T23:29:26.703Z,12.60
2018-09-28T23:31:54.442Z,12.60
2018-09-28T23:34:22.284Z,12.60
2018-09-28T23:36:50.041Z,12.60
2018-09-28T23:39:17.783Z,12.50
2018-09-28T23:41:45.526Z,12.50
2018-09-28T23:44:13.318Z,12.40
2018-09-28T23:46:41.118Z,12.50
2018-09-28T23:49:08.906Z,12.50
2018-09-28T23:51:36.673Z,12.40
2018-09-28T23:54:04.409Z,12.40
2018-09-28T23:56:32.179Z,12.40
2018-09-28T23:58:59.927Z,12.30
